Terminal Aerodrome Forecast
Issued by NWS

Home | Current Version | Previous Version | Graphics & Text | Print | Product List | Glossary On
Versions: 1 2 3 4 5 6 7 8 9 10 11 12 13 14 15 16 17
000
FTUS43 KIWX 292328 RRA
TAFSBN
TAF
KSBN 292328Z 2923/3024 05006KT P6SM VCSH BKN100
     FM300300 07006KT P6SM BKN150
     FM300900 08006KT 4SM BR BKN020
     FM301300 08005KT P6SM BKN030
     FM301500 08007KT P6SM SCT040 BKN150
     FM301900 04007KT P6SM VCSH BKN040=

USA.gov is the U.S. government's official web portal to all federal, state and local government web resources and services.